Latest Weather Observations for Cobar Airport

IDN60801

Issued at 10:32 am EDT Sunday 22 January 2017 (issued every 30 minutes, with the page automatically refreshed every 10 minutes)

About weather observations | Map of weather stations | Latest weather observations for NSW | Other Formats
Station Details ID: 048237 Name: COBAR AIRPORT AWS Lat: -31.54 Lon: 145.80 Height: 218.0 m
Data from the previous 72 hours. | See also: Recent months at Cobar Airport
Date/Time
EDT
Temp
°C
App
Temp
°C
Dew
Point
°C
Rel
Hum
%
Delta-T
°C
Wind Press
QNH
hPa
Press
MSL
hPa
Rain since
9am
mm
Dir  Spd
km/h
Gust
km/h
Spd
kts
Gust
kts
22/10:30am 27.8 26.9 15.8 48 7.4 NE 15 26 8 14 1013.0 1011.6 0.0
22/10:00am 26.7 25.2 15.4 50 6.9 NE 17 24 9 13 1013.2 1011.8 0.0
22/09:30am 25.5 23.0 15.2 53 6.3 ENE 22 32 12 17 1013.1 1011.7 0.0
22/09:00am 24.4 22.0 14.5 54 5.9 ENE 20 32 11 17 1013.3 1011.9 0.0
22/08:30am 23.3 20.7 13.8 55 5.6 E 20 30 11 16 1013.3 1011.9 0.0
22/08:00am 22.3 20.0 13.1 56 5.3 ENE 17 24 9 13 1013.1 1011.7 0.0
22/07:30am 21.3 19.7 12.7 58 4.9 ENE 13 20 7 11 1012.7 1011.3 0.0
22/07:00am 20.8 18.6 12.2 58 4.9 E 15 19 8 10 1012.2 1010.8 0.0
22/06:30am 20.8 18.2 12.0 57 5.0 E 17 24 9 13 1011.5 1010.1 0.0
22/06:00am 17.1 16.2 11.4 69 3.1 ESE 7 9 4 5 1011.3 1009.9 0.0
22/05:30am 17.2 17.9 12.3 73 2.7 CALM 0 7 0 4 1011.2 1009.8 0.0
22/05:00am 17.2 17.3 12.7 75 2.5 SSE 4 9 2 5 1010.9 1009.5 0.0
22/04:30am 18.2 17.8 12.4 69 3.3 ESE 6 9 3 5 1010.7 1009.3 0.0
22/04:00am 18.9 17.2 11.2 61 4.2 SE 11 13 6 7 1010.7 1009.3 0.0
22/03:30am 17.5 19.4 15.7 89 1.1 CALM 0 0 0 0 1011.1 1009.7 0.0
22/03:00am 17.8 19.2 14.3 80 2.0 CALM 0 0 0 0 1011.1 1009.7 0.0
22/02:30am 18.6 20.5 15.8 84 1.7 CALM 0 0 0 0 1011.2 1009.8 0.0
22/02:00am 18.4 19.2 14.7 79 2.2 SE 4 7 2 4 1011.4 1010.0 0.0
22/01:30am 18.9 18.8 13.3 70 3.2 SE 6 7 3 4 1011.6 1010.2 0.0
22/01:00am 20.1 19.5 12.3 61 4.4 SE 7 9 4 5 1011.8 1010.4 0.0
22/12:30am 21.3 20.0 11.3 53 5.6 SE 9 11 5 6 1011.8 1010.4 0.0
22/12:00am 20.8 20.8 13.7 64 4.1 SE 6 7 3 4 1011.9 1010.5 0.0
 
Date/Time
EDT
Temp
°C
App
Temp
°C
Dew
Point
°C
Rel
Hum
%
Delta-T
°C
Wind Press
QNH
hPa
Press
MSL
hPa
Rain since
9am
mm
Dir  Spd
km/h
Gust
km/h
Spd
kts
Gust
kts
21/11:30pm 22.3 20.4 10.5 47 6.5 SE 11 11 6 6 1011.7 1010.3 0.0
21/11:00pm 22.7 21.4 11.4 49 6.4 SSE 9 9 5 5 1011.6 1010.2 0.0
21/10:30pm 23.5 22.1 10.9 45 7.1 SSE 9 11 5 6 1011.3 1009.9 0.0
21/10:00pm 23.3 22.7 12.3 50 6.3 SSE 7 9 4 5 1011.0 1009.6 0.0
21/09:30pm 24.8 23.9 11.4 43 7.6 S 7 9 4 5 1010.5 1009.1 0.0
21/09:00pm 25.8 24.4 10.8 39 8.5 S 9 9 5 5 1010.4 1009.0 0.0
21/08:30pm 28.5 26.3 7.7 27 11.3 SSE 9 11 5 6 1010.0 1008.6 0.0
21/08:00pm 30.1 27.0 7.3 24 12.5 S 13 17 7 9 1009.9 1008.5 0.0
21/07:30pm 31.1 27.0 6.2 21 13.4 S 17 24 9 13 1009.5 1008.1 0.0
21/07:00pm 31.4 27.6 5.8 20 13.8 S 15 24 8 13 1009.4 1008.0 0.0
21/06:30pm 31.9 29.3 6.2 20 13.9 SSW 9 19 5 10 1009.4 1008.0 0.0
21/06:00pm 31.5 27.9 5.1 19 14.0 SSE 13 24 7 13 1009.4 1008.0 0.0
21/05:30pm 30.9 26.7 3.8 18 14.0 SSE 15 30 8 16 1009.3 1007.9 0.0
21/05:00pm 31.0 27.6 6.1 21 13.4 SSE 13 20 7 11 1009.6 1008.3 0.0
21/04:30pm 30.9 27.0 5.3 20 13.6 SW 15 26 8 14 1009.9 1008.5 0.0
21/04:00pm 30.4 26.0 4.9 20 13.4 SSE 17 24 9 13 1010.1 1008.7 0.0
21/03:30pm 30.0 25.9 6.0 22 12.8 SSE 17 26 9 14 1010.4 1009.0 0.0
21/03:00pm 29.3 25.2 6.0 23 12.4 S 17 28 9 15 1010.5 1009.1 0.0
21/02:30pm 29.4 26.3 9.0 28 11.4 SSW 15 24 8 13 1010.7 1009.3 0.0
21/02:00pm 28.3 26.2 9.6 31 10.5 S 11 20 6 11 1010.8 1009.4 0.0
21/01:30pm 27.1 23.5 8.5 31 10.2 SSW 17 26 9 14 1011.1 1009.7 0.0
21/01:00pm 26.8 23.8 9.2 33 9.8 S 15 28 8 15 1011.3 1009.9 0.0
21/12:30pm 25.2 21.9 9.5 37 8.7 S 17 26 9 14 1011.5 1010.1 0.0
21/12:00pm 23.8 20.6 8.6 38 8.2 S 15 24 8 13 1011.8 1010.4 0.0
21/11:30am 23.8 21.1 11.8 47 6.9 S 17 30 9 16 1012.0 1010.6 0.0
21/11:00am 22.5 19.3 11.3 49 6.3 S 19 30 10 16 1011.9 1010.5 0.0
21/10:30am 22.1 18.8 11.5 51 6.0 S 20 28 11 15 1012.0 1010.6 0.0
21/10:00am 20.9 18.1 11.3 54 5.4 SSE 17 24 9 13 1011.9 1010.5 0.0
21/09:30am 20.5 17.3 12.0 58 4.8 S 20 24 11 13 1011.7 1010.3 0.0
21/09:00am 19.4 16.7 11.7 61 4.3 SSE 17 22 9 12 1011.7 1010.3 8.6
21/08:30am 18.7 16.1 12.0 65 3.7 SSE 17 20 9 11 1011.6 1010.2 8.6
21/08:00am 18.1 16.4 12.5 70 3.2 SSE 13 20 7 11 1011.1 1009.7 8.6
21/07:30am 17.2 16.7 12.7 75 2.5 S 7 9 4 5 1010.7 1009.3 8.6
21/07:00am 15.9 15.3 13.4 85 1.4 S 9 13 5 7 1010.1 1008.7 8.6
21/06:30am 15.4 15.3 13.9 91 0.9 SSE 7 11 4 6 1009.7 1008.4 8.6
21/06:00am 15.7 16.0 14.6 93 0.6 SSW 6 7 3 4 1009.1 1007.7 8.6
21/05:30am 16.4 17.6 13.9 85 1.4 CALM 0 7 0 4 1008.9 1007.5 8.6
21/05:00am 17.0 15.8 14.1 83 1.7 S 13 15 7 8 1008.5 1007.1 8.6
21/04:30am 16.3 16.9 15.3 94 0.6 SSW 6 7 3 4 1008.2 1006.8 8.6
21/04:00am 17.2 17.6 15.2 88 1.2 SSW 7 11 4 6 1008.0 1006.6 8.6
21/03:30am 17.3 17.4 15.5 89 1.1 SSW 9 9 5 5 1007.8 1006.4 8.6
21/03:00am 18.2 17.8 15.1 82 1.8 SSW 11 13 6 7 1007.6 1006.2 8.6
21/02:30am 18.7 18.5 15.6 82 1.8 SSW 11 15 6 8 1007.5 1006.1 8.6
21/02:00am 19.0 19.2 15.7 81 2.0 SW 9 13 5 7 1007.6 1006.2 8.6
21/01:30am 20.1 19.7 15.1 73 3.0 SW 11 17 6 9 1007.7 1006.3 8.6
21/01:00am 20.6 20.0 15.6 73 3.0 SSW 13 20 7 11 1007.5 1006.1 8.6
21/12:30am 20.9 19.3 15.9 73 3.0 SSW 19 28 10 15 1007.4 1006.0 8.6
21/12:00am 21.1 22.0 18.5 85 1.6 SSW 11 15 6 8 1007.4 1006.0 8.6
 
Date/Time
EDT
Temp
°C
App
Temp
°C
Dew
Point
°C
Rel
Hum
%
Delta-T
°C
Wind Press
QNH
hPa
Press
MSL
hPa
Rain since
9am
mm
Dir  Spd
km/h
Gust
km/h
Spd
kts
Gust
kts
20/11:30pm 21.6 23.1 18.8 84 1.8 SW 9 13 5 7 1007.2 1005.8 8.6
20/11:00pm 22.4 23.7 20.1 87 1.5 SW 13 20 7 11 1006.6 1005.2 8.6
20/10:30pm 22.6 26.3 22.6 100 0.0 SW 7 9 4 5 1006.0 1004.6 8.6
20/10:00pm 22.9 26.8 22.9 100 0.0 WSW 7 9 4 5 1005.5 1004.1 8.6
20/09:30pm 23.1 27.3 23.1 100 0.0 W 6 7 3 4 1004.9 1003.5 8.6
20/09:00pm 23.2 27.3 23.2 100 0.0 SW 7 9 4 5 1004.4 1003.0 8.6
20/08:30pm 23.4 27.5 23.2 99 0.1 SW 7 11 4 6 1003.7 1002.3 8.6
20/08:00pm 23.4 26.8 23.4 100 0.0 WSW 11 15 6 8 1003.4 1002.0 8.6
20/07:30pm 23.3 26.2 23.1 99 0.1 SW 13 19 7 10 1003.2 1001.8 8.6
20/07:17pm 23.2 25.2 23.0 99 0.1 SW 17 22 9 12 1003.1 1001.7 8.6
20/07:06pm 23.1 25.6 23.1 100 0.0 SW 15 24 8 13 1003.0 1001.6 8.6
20/07:00pm 23.1 25.2 23.1 100 0.0 SSW 17 26 9 14 1002.9 1001.5 8.6
20/06:46pm 22.9 23.9 22.9 100 0.0 SSW 22 33 12 18 1002.7 1001.3 8.4
20/06:45pm 23.0 24.1 23.0 100 0.0 SSW 22 33 12 18 1002.7 1001.3 8.4
20/06:41pm 23.3 24.2 23.3 100 0.0 SSW 24 33 13 18 1002.6 1001.2 8.4
20/06:30pm 23.5 23.9 23.2 98 0.2 SW 26 37 14 20 1002.4 1001.0 8.2
20/06:08pm 23.9 25.1 23.9 100 0.0 SW 24 37 13 20 1001.9 1000.5 8.2
20/06:00pm 24.2 25.6 24.2 100 0.0 SW 24 41 13 22 1001.8 1000.4 8.2
20/05:53pm 24.4 25.2 24.4 100 0.0 SW 28 48 15 26 1001.7 1000.3 7.8
20/05:48pm 24.9 27.1 24.9 100 0.0 WSW 22 48 12 26 1001.6 1000.2 7.8
20/05:45pm 25.6 28.6 25.6 100 0.0 WSW 20 28 11 15 1001.3 999.8 7.6
20/05:34pm 25.2 26.5 25.2 100 0.0 WSW 28 46 15 25 1001.3 999.8 7.6
20/05:30pm 25.2 26.0 25.0 99 0.1 SW 30 46 16 25 1001.4 1000.0 7.6
20/05:28pm 25.2 25.4 24.7 97 0.3 SW 32 46 17 25 1001.3 999.8 7.4
20/05:00pm 28.9 28.3 22.6 69 4.3 WNW 30 37 16 20 1000.6 999.1 6.0
20/04:30pm 28.9 29.6 22.2 67 4.6 WNW 22 33 12 18 1000.8 999.3 6.0
20/04:00pm 29.1 28.7 22.3 66 4.7 WNW 28 39 15 21 1001.0 999.5 6.0
20/03:30pm 29.1 28.4 21.8 64 4.9 NW 28 37 15 20 1001.1 999.6 6.0
20/03:00pm 29.6 28.3 21.3 61 5.6 WNW 30 39 16 21 1001.2 999.7 6.0
20/02:30pm 29.6 27.7 21.3 61 5.6 NW 33 46 18 25 1001.5 1000.1 6.0
20/02:14pm 30.6 28.8 21.1 57 6.4 WNW 32 50 17 27 1001.3 999.8 6.0
20/02:00pm 31.0 30.2 22.3 60 6.0 WNW 30 39 16 21 1001.5 1000.1 6.0
20/01:30pm 28.9 29.4 22.6 69 4.3 WNW 24 35 13 19 1002.2 1000.8 6.0
20/01:00pm 28.5 30.2 23.4 74 3.5 WNW 20 32 11 17 1002.3 1000.9 6.0
20/12:30pm 27.4 30.8 24.7 85 1.9 NNW 15 20 8 11 1002.5 1001.1 6.0
20/12:00pm 26.2 29.3 24.8 92 1.0 NNW 17 24 9 13 1002.6 1001.2 6.0
20/11:30am 25.6 30.2 25.3 98 0.2 N 11 17 6 9 1003.0 1001.6 6.0
20/11:27am 25.2 29.0 24.7 97 0.3 NNW 13 17 7 9 1003.0 1001.6 6.0
20/11:00am 24.7 28.4 24.5 99 0.1 N 13 17 7 9 1003.5 1002.1 6.0
20/10:42am 24.3 28.2 24.3 100 0.0 NNW 11 15 6 8 1003.7 1002.3 6.0
20/10:30am 24.4 28.8 24.4 100 0.0 NNW 9 13 5 7 1003.6 1002.2 6.0
20/10:00am 23.9 27.6 23.9 100 0.0 NW 11 17 6 9 1004.1 1002.7 5.2
20/09:50am 23.6 26.7 23.6 100 0.0 WNW 13 17 7 9 1004.3 1002.9 5.2
20/09:30am 23.4 26.1 23.4 100 0.0 WNW 15 20 8 11 1004.6 1003.2 4.4
20/09:23am 23.5 26.2 23.5 100 0.0 WNW 15 20 8 11 1004.7 1003.3 2.2
20/09:00am 23.5 26.2 23.5 100 0.0 WNW 15 20 8 11 1004.5 1003.1 10.6
20/08:55am 23.5 25.4 23.5 100 0.0 WNW 19 26 10 14 1004.5 1003.1 10.6
20/08:34am 23.9 26.1 23.9 100 0.0 WNW 19 24 10 13 1004.6 1003.2 8.8
20/08:30am 24.1 26.8 24.1 100 0.0 W 17 24 9 13 1004.6 1003.2 8.4
20/08:00am 23.7 26.1 23.7 100 0.0 WSW 17 24 9 13 1004.0 1002.6 7.0
20/07:45am 23.7 25.8 23.7 100 0.0 W 19 28 10 15 1004.0 1002.6 7.0
20/07:30am 23.5 23.7 23.5 100 0.0 W 28 43 15 23 1004.0 1002.6 6.8
20/07:24am 22.9 20.2 22.6 98 0.2 W 41 72 22 39 1004.1 1002.7 4.8
20/07:21am 23.1 19.8 22.3 95 0.5 WNW 43 72 23 39 1004.1 1002.7 2.2
20/07:16am 24.9 22.3 19.5 72 3.5 WNW 32 72 17 39 1003.5 1002.1 0.0
20/07:15am 26.1 24.4 19.7 68 4.2 WNW 28 56 15 30 1003.5 1002.1 0.0
20/07:00am 29.9 31.3 19.6 54 6.8 NW 11 15 6 8 1001.9 1000.5 0.0
20/06:30am 29.7 30.7 19.4 54 6.8 N 13 19 7 10 1000.7 999.2 0.0
20/06:00am 30.1 29.8 19.2 52 7.2 NNW 19 24 10 13 1000.6 999.1 0.0
20/05:30am 30.5 31.2 18.9 50 7.6 N 13 17 7 9 1000.1 998.7 0.0
20/05:00am 30.5 32.0 18.9 50 7.6 N 9 13 5 7 1000.3 998.8 0.0
20/04:30am 30.5 31.6 18.9 50 7.6 NNW 11 15 6 8 1000.3 998.8 0.0
20/04:00am 30.8 31.1 18.8 48 7.9 NNW 15 19 8 10 1000.4 998.9 0.0
20/03:30am 31.4 31.1 19.1 48 8.1 NNW 19 28 10 15 1000.8 999.3 0.0
20/03:00am 32.0 32.4 18.9 45 8.6 NNW 15 20 8 11 1001.3 999.8 0.0
20/02:30am 32.5 32.0 18.7 44 9.1 NW 19 24 10 13 1001.9 1000.5 0.0
20/02:00am 33.1 32.5 18.8 42 9.4 WNW 20 28 11 15 1002.2 1000.8 0.0
20/01:30am 32.4 33.8 17.8 41 9.5 NNW 7 7 4 4 1002.2 1000.8 0.0
20/01:00am 32.7 33.2 16.5 37 10.3 NNE 9 11 5 6 1002.4 1001.0 0.0
20/12:30am 32.7 33.1 15.2 34 10.9 NNW 7 9 4 5 1002.2 1000.8 0.0
20/12:00am 33.8 34.0 15.7 33 11.5 NE 9 11 5 6 1002.4 1001.0 0.0
 
Date/Time
EDT
Temp
°C
App
Temp
°C
Dew
Point
°C
Rel
Hum
%
Delta-T
°C
Wind Press
QNH
hPa
Press
MSL
hPa
Rain since
9am
mm
Dir  Spd
km/h
Gust
km/h
Spd
kts
Gust
kts
19/11:30pm 34.6 35.1 15.5 32 12.1 NNW 7 9 4 5 1002.5 1001.1 0.0
19/11:00pm 35.2 35.3 14.5 29 13.0 N 7 11 4 6 1002.9 1001.5 0.0
19/10:30pm 36.5 36.0 15.0 27 13.6 NW 11 24 6 13 1002.9 1001.5 0.0
19/10:00pm 35.7 35.2 12.0 24 14.3 E 6 7 3 4 1003.0 1001.6 0.0
19/09:30pm 36.4 35.7 11.9 23 14.8 SE 7 9 4 5 1002.9 1001.5 0.0
19/09:00pm 36.2 35.6 11.8 23 14.7 S 6 9 3 5 1002.9 1001.5 0.0
19/08:30pm 37.3 37.0 11.3 21 15.6 SW 4 6 2 3 1002.8 1001.4 0.0
19/08:00pm 38.8 37.4 11.0 19 16.8 SSW 9 13 5 7 1002.6 1001.2 0.0
19/07:30pm 39.3 38.2 10.6 18 17.2 S 7 11 4 6 1002.5 1001.1 0.0
19/07:00pm 39.2 37.7 10.5 18 17.2 W 9 17 5 9 1002.6 1001.2 0.0
19/06:30pm 39.6 38.5 10.8 18 17.3 NNW 7 19 4 10 1002.7 1001.3 0.0
19/06:00pm 40.4 38.0 11.5 18 17.7 WSW 15 24 8 13 1002.8 1001.4 0.0
19/05:30pm 40.7 38.0 11.7 18 17.7 SW 17 28 9 15 1003.2 1001.8 0.0
19/05:00pm 39.9 37.4 11.1 18 17.5 SSE 15 24 8 13 1003.8 1002.4 0.0
19/04:30pm 39.3 36.1 11.4 19 16.9 SW 19 24 10 13 1004.3 1002.9 0.0
19/04:00pm 39.9 38.9 11.1 18 17.5 NE 7 24 4 13 1004.8 1003.4 0.0
19/03:30pm 40.4 38.8 11.5 18 17.6 SW 11 20 6 11 1005.5 1004.1 0.0
19/03:00pm 39.5 37.2 11.6 19 17.0 SSE 15 22 8 12 1006.1 1004.7 0.0
19/02:30pm 38.0 35.9 11.1 20 16.1 WNW 13 20 7 11 1006.7 1005.3 0.0
19/02:00pm 39.2 36.4 11.3 19 16.9 SW 17 32 9 17 1007.1 1005.7 0.0
19/01:30pm 38.2 36.9 11.3 20 16.2 WSW 9 19 5 10 1007.6 1006.2 0.0
19/01:00pm 38.2 36.7 12.0 21 16.0 WSW 11 17 6 9 1008.2 1006.8 0.0
19/12:30pm 36.0 35.0 10.9 22 14.9 SW 7 15 4 8 1008.6 1007.2 0.0
19/12:00pm 35.7 34.1 11.4 23 14.5 SSE 11 17 6 9 1008.9 1007.5 0.0
19/11:30am 35.4 33.8 11.7 23 14.2 SSE 11 17 6 9 1009.2 1007.8 0.0
19/11:00am 34.3 33.4 11.4 25 13.6 ENE 7 19 4 10 1009.4 1008.0 0.0

Other Formats:

Comma delimited format used in spreadsheet applications
http://www.bom.gov.au/fwo/IDN60801/IDN60801.94710.axf

JavaScript Object Notation format (JSON) in row-major order
http://www.bom.gov.au/fwo/IDN60801/IDN60801.94710.json